ブラジリア の空港の天気 - METARとTAF

ブラジリア国際空港 ( SBBR / BSB ) - ブラジル ブラジリア
飛行場実況気象(Metar)
観測時間08/14 16:00 BRT (08/14 19:00 UTC)
風向・風速東 4m/s
視程10km以上
天気現象
なし
気温30℃
湿度27%
気圧1016hPa
METARSBBR 141900Z 08008KT 040V130 CAVOK 30/09 Q1016
過去の天気等 Google飛行場航空写真 Wunderground天気予報

過去48時間のMETAR

飛行場予報(TAF)
発表時間: 8/14 13:00 BRT (8/14 16:00 UTC)
予報対象時間: 14日15時 BRT ~ 15日15時 BRT
風向・風速北 4m/s
視程10km以上
全天の4割程度の雲 雲底高度 1220m
14日16時 BRT ~ 14日18時 BRT に徐々に
風向・風速東 3m/s
14日22時 BRT ~ 14日24時 BRT に徐々に
風向・風速西 1m/s
15日8時 BRT ~ 15日10時 BRT に徐々に
風向・風速東 4m/s
TAF SBBR 141600Z 1418/1518 01007KT 9999 SCT040 TN14/1509Z TX28/1518Z
BECMG 1419/1421 08005KT
BECMG 1501/1503 27002KT
BECMG 1511/1513 08007KT RMK PDU